sensor_id;sensor_type;location;lat;lon;timestamp;pressure;altitude;pressure_sealevel;temperature;humidity
34177;BME280;20450;49.074;9.158;2022-07-23T00:01:01;99415.72;;;25.42;63.20
34177;BME280;20450;49.074;9.158;2022-07-23T00:03:28;99409.94;;;25.45;63.20
34177;BME280;20450;49.074;9.158;2022-07-23T00:05:55;99414.88;;;25.48;63.34
34177;BME280;20450;49.074;9.158;2022-07-23T00:08:22;99411.97;;;25.50;63.25
34177;BME280;20450;49.074;9.158;2022-07-23T00:10:49;99413.97;;;25.61;61.75
34177;BME280;20450;49.074;9.158;2022-07-23T00:13:16;99403.66;;;25.64;61.89
34177;BME280;20450;49.074;9.158;2022-07-23T00:15:44;99393.00;;;25.64;60.85
34177;BME280;20450;49.074;9.158;2022-07-23T00:18:12;99388.47;;;25.71;60.09
34177;BME280;20450;49.074;9.158;2022-07-23T00:20:39;99394.59;;;25.72;60.18
34177;BME280;20450;49.074;9.158;2022-07-23T00:23:06;99404.47;;;25.71;60.02
34177;BME280;20450;49.074;9.158;2022-07-23T00:25:34;99402.44;;;25.67;59.54
34177;BME280;20450;49.074;9.158;2022-07-23T00:28:02;99399.13;;;25.71;58.25
34177;BME280;20450;49.074;9.158;2022-07-23T00:30:30;99401.34;;;25.74;58.42
34177;BME280;20450;49.074;9.158;2022-07-23T00:33:00;99401.16;;;25.76;58.48
34177;BME280;20450;49.074;9.158;2022-07-23T00:35:31;99396.41;;;25.78;57.53
34177;BME280;20450;49.074;9.158;2022-07-23T00:38:00;99394.56;;;25.78;58.35
34177;BME280;20450;49.074;9.158;2022-07-23T00:40:29;99397.88;;;25.74;57.38
34177;BME280;20450;49.074;9.158;2022-07-23T00:42:57;99395.44;;;25.66;58.27
34177;BME280;20450;49.074;9.158;2022-07-23T00:45:25;99395.81;;;25.76;59.12
34177;BME280;20450;49.074;9.158;2022-07-23T00:47:52;99387.81;;;25.76;58.94
34177;BME280;20450;49.074;9.158;2022-07-23T00:50:19;99392.09;;;25.77;58.86
34177;BME280;20450;49.074;9.158;2022-07-23T00:52:48;99387.97;;;25.81;58.05
34177;BME280;20450;49.074;9.158;2022-07-23T00:55:15;99390.84;;;25.79;57.83
34177;BME280;20450;49.074;9.158;2022-07-23T00:57:42;99388.47;;;25.71;57.89
34177;BME280;20450;49.074;9.158;2022-07-23T01:00:12;99394.53;;;25.47;58.74
34177;BME280;20450;49.074;9.158;2022-07-23T01:02:41;99389.91;;;25.30;58.90
34177;BME280;20450;49.074;9.158;2022-07-23T01:05:10;99390.94;;;25.16;59.44
34177;BME280;20450;49.074;9.158;2022-07-23T01:07:37;99395.47;;;25.09;60.69
34177;BME280;20450;49.074;9.158;2022-07-23T01:10:07;99395.69;;;25.07;60.12
34177;BME280;20450;49.074;9.158;2022-07-23T01:12:34;99398.34;;;25.07;60.86
34177;BME280;20450;49.074;9.158;2022-07-23T01:15:01;99395.94;;;24.93;61.01
34177;BME280;20450;49.074;9.158;2022-07-23T01:17:29;99393.66;;;25.03;59.94
34177;BME280;20450;49.074;9.158;2022-07-23T01:19:58;99391.59;;;25.05;60.34
34177;BME280;20450;49.074;9.158;2022-07-23T01:22:28;99380.13;;;24.98;60.15
34177;BME280;20450;49.074;9.158;2022-07-23T01:24:56;99374.22;;;24.96;60.08
34177;BME280;20450;49.074;9.158;2022-07-23T01:27:25;99367.00;;;24.96;59.94
34177;BME280;20450;49.074;9.158;2022-07-23T01:29:59;99371.56;;;24.89;60.73
34177;BME280;20450;49.074;9.158;2022-07-23T01:32:27;99363.75;;;24.94;60.73
34177;BME280;20450;49.074;9.158;2022-07-23T01:34:54;99357.59;;;24.94;60.09
34177;BME280;20450;49.074;9.158;2022-07-23T01:37:21;99358.00;;;24.91;60.82
34177;BME280;20450;49.074;9.158;2022-07-23T01:39:49;99351.25;;;24.95;60.98
34177;BME280;20450;49.074;9.158;2022-07-23T01:42:17;99348.78;;;24.93;60.01
34177;BME280;20450;49.074;9.158;2022-07-23T01:44:46;99352.44;;;24.99;62.14
34177;BME280;20450;49.074;9.158;2022-07-23T01:47:18;99365.56;;;25.07;62.82
34177;BME280;20450;49.074;9.158;2022-07-23T01:49:47;99372.72;;;25.13;63.17
34177;BME280;20450;49.074;9.158;2022-07-23T01:52:31;99371.06;;;25.12;63.14
34177;BME280;20450;49.074;9.158;2022-07-23T01:55:00;99381.94;;;25.10;62.96
34177;BME280;20450;49.074;9.158;2022-07-23T01:57:28;99393.66;;;25.03;62.67
34177;BME280;20450;49.074;9.158;2022-07-23T01:59:55;99386.69;;;25.02;63.48
34177;BME280;20450;49.074;9.158;2022-07-23T02:02:21;99382.19;;;24.96;63.02
34177;BME280;20450;49.074;9.158;2022-07-23T02:04:49;99378.31;;;24.98;61.87
34177;BME280;20450;49.074;9.158;2022-07-23T02:07:17;99383.03;;;24.90;61.49
34177;BME280;20450;49.074;9.158;2022-07-23T02:09:44;99392.69;;;24.91;63.02
34177;BME280;20450;49.074;9.158;2022-07-23T02:12:13;99394.31;;;24.92;62.33
34177;BME280;20450;49.074;9.158;2022-07-23T02:14:40;99410.09;;;24.93;62.31
34177;BME280;20450;49.074;9.158;2022-07-23T02:17:07;99403.97;;;24.73;61.54
34177;BME280;20450;49.074;9.158;2022-07-23T02:19:34;99413.03;;;24.66;61.93
34177;BME280;20450;49.074;9.158;2022-07-23T02:22:02;99412.59;;;24.75;62.87
34177;BME280;20450;49.074;9.158;2022-07-23T02:24:29;99406.84;;;24.78;62.50
34177;BME280;20450;49.074;9.158;2022-07-23T02:26:55;99409.31;;;24.80;62.95
34177;BME280;20450;49.074;9.158;2022-07-23T02:29:24;99413.81;;;24.79;62.49
34177;BME280;20450;49.074;9.158;2022-07-23T02:31:53;99415.88;;;24.84;63.58
34177;BME280;20450;49.074;9.158;2022-07-23T02:34:21;99416.28;;;24.87;64.92
34177;BME280;20450;49.074;9.158;2022-07-23T02:36:49;99411.56;;;24.83;65.21
34177;BME280;20450;49.074;9.158;2022-07-23T02:39:16;99415.03;;;24.83;64.42
34177;BME280;20450;49.074;9.158;2022-07-23T02:41:43;99414.25;;;24.83;65.11
34177;BME280;20450;49.074;9.158;2022-07-23T02:44:10;99418.78;;;24.63;65.47
34177;BME280;20450;49.074;9.158;2022-07-23T02:46:39;99427.38;;;24.65;64.54
34177;BME280;20450;49.074;9.158;2022-07-23T02:49:06;99436.38;;;24.64;65.32
34177;BME280;20450;49.074;9.158;2022-07-23T02:51:33;99447.69;;;24.66;66.77
34177;BME280;20450;49.074;9.158;2022-07-23T02:54:03;99462.63;;;24.67;66.74
34177;BME280;20450;49.074;9.158;2022-07-23T02:56:31;99466.72;;;24.50;65.88
34177;BME280;20450;49.074;9.158;2022-07-23T02:58:57;99455.81;;;24.19;66.92
34177;BME280;20450;49.074;9.158;2022-07-23T03:01:25;99469.97;;;24.19;66.82
34177;BME280;20450;49.074;9.158;2022-07-23T03:03:54;99469.16;;;24.32;66.71
34177;BME280;20450;49.074;9.158;2022-07-23T03:06:22;99465.47;;;24.33;66.02
34177;BME280;20450;49.074;9.158;2022-07-23T03:08:49;99467.13;;;24.34;65.68
34177;BME280;20450;49.074;9.158;2022-07-23T03:11:16;99467.53;;;24.37;65.46
34177;BME280;20450;49.074;9.158;2022-07-23T03:13:43;99472.44;;;24.40;65.37
34177;BME280;20450;49.074;9.158;2022-07-23T03:16:10;99469.53;;;24.22;65.80
34177;BME280;20450;49.074;9.158;2022-07-23T03:18:38;99467.06;;;24.08;66.82
34177;BME280;20450;49.074;9.158;2022-07-23T03:21:08;99470.03;;;23.79;68.11
34177;BME280;20450;49.074;9.158;2022-07-23T03:23:36;99462.91;;;23.86;68.21
34177;BME280;20450;49.074;9.158;2022-07-23T03:26:04;99469.50;;;23.96;67.75
34177;BME280;20450;49.074;9.158;2022-07-23T03:28:31;99472.81;;;24.05;67.10
34177;BME280;20450;49.074;9.158;2022-07-23T03:30:58;99466.69;;;24.11;66.76
34177;BME280;20450;49.074;9.158;2022-07-23T03:33:25;99469.56;;;24.16;66.93
34177;BME280;20450;49.074;9.158;2022-07-23T03:35:53;99473.22;;;24.21;66.90
34177;BME280;20450;49.074;9.158;2022-07-23T03:38:27;99473.19;;;24.02;66.85
34177;BME280;20450;49.074;9.158;2022-07-23T03:40:54;99480.19;;;24.09;67.92
34177;BME280;20450;49.074;9.158;2022-07-23T03:43:21;99488.78;;;24.11;66.49
34177;BME280;20450;49.074;9.158;2022-07-23T03:45:48;99501.50;;;24.16;66.64
34177;BME280;20450;49.074;9.158;2022-07-23T03:48:15;99486.75;;;24.20;66.10
34177;BME280;20450;49.074;9.158;2022-07-23T03:50:44;99485.75;;;24.21;65.96
34177;BME280;20450;49.074;9.158;2022-07-23T03:53:11;99495.38;;;24.22;66.46
34177;BME280;20450;49.074;9.158;2022-07-23T03:55:39;99492.91;;;24.20;65.87
34177;BME280;20450;49.074;9.158;2022-07-23T03:58:07;99492.72;;;24.22;66.08
34177;BME280;20450;49.074;9.158;2022-07-23T04:00:34;99492.28;;;24.18;66.33
34177;BME280;20450;49.074;9.158;2022-07-23T04:03:01;99498.22;;;24.20;66.66
34177;BME280;20450;49.074;9.158;2022-07-23T04:05:28;99497.41;;;24.20;66.56
34177;BME280;20450;49.074;9.158;2022-07-23T04:08:04;99509.28;;;24.24;66.61
34177;BME280;20450;49.074;9.158;2022-07-23T04:10:32;99512.16;;;24.22;66.49
34177;BME280;20450;49.074;9.158;2022-07-23T04:13:00;99503.78;;;24.25;67.03
34177;BME280;20450;49.074;9.158;2022-07-23T04:15:27;99503.34;;;24.28;66.84
34177;BME280;20450;49.074;9.158;2022-07-23T04:17:54;99502.72;;;24.13;67.09
34177;BME280;20450;49.074;9.158;2022-07-23T04:20:25;99513.31;;;23.94;68.02
34177;BME280;20450;49.074;9.158;2022-07-23T04:22:56;99510.47;;;24.02;69.06
34177;BME280;20450;49.074;9.158;2022-07-23T04:25:24;99520.81;;;23.77;69.43
34177;BME280;20450;49.074;9.158;2022-07-23T04:27:50;99517.34;;;23.36;70.87
34177;BME280;20450;49.074;9.158;2022-07-23T04:30:19;99513.50;;;23.45;70.61
34177;BME280;20450;49.074;9.158;2022-07-23T04:32:46;99521.16;;;23.68;70.11
34177;BME280;20450;49.074;9.158;2022-07-23T04:35:19;99519.44;;;23.88;69.84
34177;BME280;20450;49.074;9.158;2022-07-23T04:37:46;99514.63;;;24.24;68.76
34177;BME280;20450;49.074;9.158;2022-07-23T04:40:14;99525.72;;;24.47;67.40
34177;BME280;20450;49.074;9.158;2022-07-23T04:42:41;99532.31;;;24.77;66.46
34177;BME280;20450;49.074;9.158;2022-07-23T04:45:09;99541.75;;;24.86;66.52
34177;BME280;20450;49.074;9.158;2022-07-23T04:47:41;99552.44;;;24.92;65.30
34177;BME280;20450;49.074;9.158;2022-07-23T04:50:11;99552.03;;;24.89;65.56
34177;BME280;20450;49.074;9.158;2022-07-23T04:52:39;99551.19;;;24.82;65.98
34177;BME280;20450;49.074;9.158;2022-07-23T04:55:07;99551.78;;;24.71;66.01
34177;BME280;20450;49.074;9.158;2022-07-23T04:57:34;99561.00;;;24.49;67.21
34177;BME280;20450;49.074;9.158;2022-07-23T05:00:02;99562.81;;;24.48;67.30
34177;BME280;20450;49.074;9.158;2022-07-23T05:02:31;99566.31;;;24.49;67.69
34177;BME280;20450;49.074;9.158;2022-07-23T05:04:59;99560.56;;;24.52;66.41
34177;BME280;20450;49.074;9.158;2022-07-23T05:07:27;99565.06;;;24.45;66.51
34177;BME280;20450;49.074;9.158;2022-07-23T05:09:54;99559.34;;;24.41;67.46
34177;BME280;20450;49.074;9.158;2022-07-23T05:12:21;99554.53;;;24.11;68.46
34177;BME280;20450;49.074;9.158;2022-07-23T05:14:48;99546.22;;;23.46;71.43
34177;BME280;20450;49.074;9.158;2022-07-23T05:17:15;99534.63;;;23.19;72.79
34177;BME280;20450;49.074;9.158;2022-07-23T05:19:42;99547.25;;;23.45;72.09
34177;BME280;20450;49.074;9.158;2022-07-23T05:22:11;99557.81;;;23.66;71.50
34177;BME280;20450;49.074;9.158;2022-07-23T05:24:38;99563.81;;;23.81;71.42
34177;BME280;20450;49.074;9.158;2022-07-23T05:27:07;99571.88;;;23.94;70.09
34177;BME280;20450;49.074;9.158;2022-07-23T05:29:34;99578.66;;;24.03;70.35
34177;BME280;20450;49.074;9.158;2022-07-23T05:32:01;99581.78;;;24.13;69.09
34177;BME280;20450;49.074;9.158;2022-07-23T05:34:30;99590.22;;;24.23;69.12
34177;BME280;20450;49.074;9.158;2022-07-23T05:36:58;99590.81;;;24.25;68.61
34177;BME280;20450;49.074;9.158;2022-07-23T05:39:27;99585.13;;;24.28;67.52
34177;BME280;20450;49.074;9.158;2022-07-23T05:41:55;99593.13;;;24.34;67.64
34177;BME280;20450;49.074;9.158;2022-07-23T05:44:22;99603.00;;;24.40;67.16
34177;BME280;20450;49.074;9.158;2022-07-23T05:46:49;99615.09;;;24.43;66.60
34177;BME280;20450;49.074;9.158;2022-07-23T05:49:24;99624.25;;;24.34;66.83
34177;BME280;20450;49.074;9.158;2022-07-23T05:52:04;99641.25;;;24.26;67.92
34177;BME280;20450;49.074;9.158;2022-07-23T05:54:53;99644.06;;;24.12;68.14
34177;BME280;20450;49.074;9.158;2022-07-23T05:57:21;99645.16;;;23.90;69.67
34177;BME280;20450;49.074;9.158;2022-07-23T05:59:51;99634.00;;;23.80;72.89
34177;BME280;20450;49.074;9.158;2022-07-23T06:02:18;99629.28;;;23.75;75.39
34177;BME280;20450;49.074;9.158;2022-07-23T06:04:46;99625.50;;;23.57;77.52
34177;BME280;20450;49.074;9.158;2022-07-23T06:07:22;99636.72;;;23.52;78.44
34177;BME280;20450;49.074;9.158;2022-07-23T06:09:49;99637.44;;;23.40;78.66
34177;BME280;20450;49.074;9.158;2022-07-23T06:12:18;99626.66;;;23.20;79.62
34177;BME280;20450;49.074;9.158;2022-07-23T06:14:45;99621.88;;;23.16;78.82
34177;BME280;20450;49.074;9.158;2022-07-23T06:17:12;99618.91;;;23.19;78.37
34177;BME280;20450;49.074;9.158;2022-07-23T06:19:38;99603.25;;;23.09;77.87
34177;BME280;20450;49.074;9.158;2022-07-23T06:22:05;99591.38;;;22.63;80.38
34177;BME280;20450;49.074;9.158;2022-07-23T06:24:32;99583.53;;;22.55;81.30
34177;BME280;20450;49.074;9.158;2022-07-23T06:26:59;99584.50;;;22.69;81.10
34177;BME280;20450;49.074;9.158;2022-07-23T06:29:28;99589.03;;;22.75;83.47
34177;BME280;20450;49.074;9.158;2022-07-23T06:31:56;99587.31;;;22.88;84.17
34177;BME280;20450;49.074;9.158;2022-07-23T06:34:23;99590.91;;;23.02;83.72
34177;BME280;20450;49.074;9.158;2022-07-23T06:36:51;99575.94;;;23.22;83.92
34177;BME280;20450;49.074;9.158;2022-07-23T06:39:18;99582.25;;;23.42;82.89
34177;BME280;20450;49.074;9.158;2022-07-23T06:41:47;99581.03;;;23.51;82.22
34177;BME280;20450;49.074;9.158;2022-07-23T06:44:18;99602.84;;;23.67;79.78
34177;BME280;20450;49.074;9.158;2022-07-23T06:46:48;99626.63;;;23.75;80.54
34177;BME280;20450;49.074;9.158;2022-07-23T06:49:15;99647.44;;;23.65;81.42
34177;BME280;20450;49.074;9.158;2022-07-23T06:51:42;99657.63;;;23.55;81.52
34177;BME280;20450;49.074;9.158;2022-07-23T06:54:10;99685.72;;;23.37;83.23
34177;BME280;20450;49.074;9.158;2022-07-23T06:59:04;99692.03;;;22.94;86.65
34177;BME280;20450;49.074;9.158;2022-07-23T07:01:32;99675.38;;;22.85;87.74
34177;BME280;20450;49.074;9.158;2022-07-23T07:04:01;99698.59;;;22.77;87.04
34177;BME280;20450;49.074;9.158;2022-07-23T07:06:28;99712.84;;;22.69;89.16
34177;BME280;20450;49.074;9.158;2022-07-23T07:08:55;99707.63;;;22.61;89.60
34177;BME280;20450;49.074;9.158;2022-07-23T07:11:22;99693.38;;;22.48;91.15
34177;BME280;20450;49.074;9.158;2022-07-23T07:13:49;99704.00;;;22.48;91.17
34177;BME280;20450;49.074;9.158;2022-07-23T07:16:16;99712.63;;;22.50;90.29
34177;BME280;20450;49.074;9.158;2022-07-23T07:18:43;99691.97;;;21.50;96.73
34177;BME280;20450;49.074;9.158;2022-07-23T07:21:12;99678.19;;;20.65;100.00
34177;BME280;20450;49.074;9.158;2022-07-23T07:23:39;99678.19;;;20.65;100.00
34177;BME280;20450;49.074;9.158;2022-07-23T07:26:06;99677.72;;;20.84;100.00
34177;BME280;20450;49.074;9.158;2022-07-23T07:28:33;99666.69;;;21.03;99.51
34177;BME280;20450;49.074;9.158;2022-07-23T07:31:00;99665.84;;;21.25;97.57
34177;BME280;20450;49.074;9.158;2022-07-23T07:33:29;99656.25;;;21.38;95.61
34177;BME280;20450;49.074;9.158;2022-07-23T07:35:56;99661.41;;;21.54;96.03
34177;BME280;20450;49.074;9.158;2022-07-23T07:38:24;99662.53;;;21.60;96.25
34177;BME280;20450;49.074;9.158;2022-07-23T07:40:51;99653.84;;;21.66;94.68
34177;BME280;20450;49.074;9.158;2022-07-23T07:43:18;99648.19;;;21.98;93.65
34177;BME280;20450;49.074;9.158;2022-07-23T07:45:45;99659.16;;;22.24;93.69
34177;BME280;20450;49.074;9.158;2022-07-23T07:48:12;99656.91;;;22.42;92.83
34177;BME280;20450;49.074;9.158;2022-07-23T07:50:39;99653.00;;;22.23;90.31
34177;BME280;20450;49.074;9.158;2022-07-23T07:53:06;99648.00;;;22.64;92.08
34177;BME280;20450;49.074;9.158;2022-07-23T07:55:34;99651.88;;;22.82;89.84
34177;BME280;20450;49.074;9.158;2022-07-23T07:58:01;99655.63;;;22.38;90.64
34177;BME280;20450;49.074;9.158;2022-07-23T08:00:29;99657.50;;;22.73;89.84
34177;BME280;20450;49.074;9.158;2022-07-23T08:02:59;99661.69;;;22.32;91.96
34177;BME280;20450;49.074;9.158;2022-07-23T08:05:28;99669.78;;;21.95;94.31
34177;BME280;20450;49.074;9.158;2022-07-23T08:07:58;99677.44;;;22.19;95.63
34177;BME280;20450;49.074;9.158;2022-07-23T08:10:26;99680.56;;;22.08;90.96
34177;BME280;20450;49.074;9.158;2022-07-23T08:12:56;99694.81;;;22.50;90.67
34177;BME280;20450;49.074;9.158;2022-07-23T08:15:26;99699.13;;;22.87;91.63
34177;BME280;20450;49.074;9.158;2022-07-23T08:17:54;99697.53;;;23.13;87.65
34177;BME280;20450;49.074;9.158;2022-07-23T08:20:23;99698.00;;;23.38;88.83
34177;BME280;20450;49.074;9.158;2022-07-23T08:22:52;99693.78;;;23.50;88.33
34177;BME280;20450;49.074;9.158;2022-07-23T08:25:22;99694.56;;;23.44;87.34
34177;BME280;20450;49.074;9.158;2022-07-23T08:27:52;99695.19;;;23.46;89.15
34177;BME280;20450;49.074;9.158;2022-07-23T08:30:23;99694.09;;;23.61;90.26
34177;BME280;20450;49.074;9.158;2022-07-23T08:32:52;99694.53;;;23.65;89.09
34177;BME280;20450;49.074;9.158;2022-07-23T08:35:26;99695.16;;;23.67;89.45
34177;BME280;20450;49.074;9.158;2022-07-23T08:37:56;99692.47;;;23.60;88.22
34177;BME280;20450;49.074;9.158;2022-07-23T08:40:26;99696.13;;;23.59;85.85
34177;BME280;20450;49.074;9.158;2022-07-23T08:42:54;99699.00;;;23.58;86.74
34177;BME280;20450;49.074;9.158;2022-07-23T08:45:23;99708.84;;;23.64;87.37
34177;BME280;20450;49.074;9.158;2022-07-23T08:47:53;99704.88;;;23.81;87.65
34177;BME280;20450;49.074;9.158;2022-07-23T08:50:24;99699.06;;;23.71;84.50
34177;BME280;20450;49.074;9.158;2022-07-23T08:52:53;99705.13;;;23.86;85.72
34177;BME280;20450;49.074;9.158;2022-07-23T08:55:22;99711.72;;;23.90;86.80
34177;BME280;20450;49.074;9.158;2022-07-23T08:57:50;99722.47;;;24.09;86.46
34177;BME280;20450;49.074;9.158;2022-07-23T09:00:21;99725.69;;;24.32;85.17
34177;BME280;20450;49.074;9.158;2022-07-23T09:02:49;99725.53;;;24.47;83.50
34177;BME280;20450;49.074;9.158;2022-07-23T09:05:18;99723.81;;;24.67;82.72
34177;BME280;20450;49.074;9.158;2022-07-23T09:08:09;99716.69;;;24.87;81.56
34177;BME280;20450;49.074;9.158;2022-07-23T09:10:49;99707.00;;;24.60;83.89
34177;BME280;20450;49.074;9.158;2022-07-23T09:13:33;99707.63;;;24.75;83.34
34177;BME280;20450;49.074;9.158;2022-07-23T09:16:07;99707.50;;;24.96;82.43
34177;BME280;20450;49.074;9.158;2022-07-23T09:18:39;99694.41;;;25.20;81.43
34177;BME280;20450;49.074;9.158;2022-07-23T09:21:18;99709.19;;;25.49;77.08
34177;BME280;20450;49.074;9.158;2022-07-23T09:23:53;99711.66;;;25.44;72.09
34177;BME280;20450;49.074;9.158;2022-07-23T09:26:34;99718.63;;;26.03;71.61
34177;BME280;20450;49.074;9.158;2022-07-23T09:37:23;99709.16;;;27.02;66.55
34177;BME280;20450;49.074;9.158;2022-07-23T09:40:03;99712.69;;;27.33;65.24
34177;BME280;20450;49.074;9.158;2022-07-23T09:42:33;99717.41;;;27.87;63.39
34177;BME280;20450;49.074;9.158;2022-07-23T09:45:00;99715.06;;;28.51;62.85
34177;BME280;20450;49.074;9.158;2022-07-23T09:47:29;99719.16;;;29.01;62.56
34177;BME280;20450;49.074;9.158;2022-07-23T09:50:00;99720.97;;;29.18;58.69
34177;BME280;20450;49.074;9.158;2022-07-23T09:52:32;99715.69;;;29.23;55.60
34177;BME280;20450;49.074;9.158;2022-07-23T09:55:03;99716.56;;;29.35;56.93
34177;BME280;20450;49.074;9.158;2022-07-23T09:57:32;99721.53;;;29.73;57.05
34177;BME280;20450;49.074;9.158;2022-07-23T10:00:02;99720.59;;;30.13;55.54
34177;BME280;20450;49.074;9.158;2022-07-23T10:02:33;99708.78;;;30.03;56.07
34177;BME280;20450;49.074;9.158;2022-07-23T10:05:24;99712.78;;;29.54;55.85
34177;BME280;20450;49.074;9.158;2022-07-23T10:08:18;99703.69;;;29.67;55.22
34177;BME280;20450;49.074;9.158;2022-07-23T10:11:06;99707.88;;;29.63;54.39
34177;BME280;20450;49.074;9.158;2022-07-23T10:13:53;99711.81;;;30.06;54.65
34177;BME280;20450;49.074;9.158;2022-07-23T10:16:29;99713.84;;;29.24;56.18
34177;BME280;20450;49.074;9.158;2022-07-23T10:18:57;99706.50;;;29.19;57.84
34177;BME280;20450;49.074;9.158;2022-07-23T10:21:27;99719.31;;;29.58;55.74
34177;BME280;20450;49.074;9.158;2022-07-23T10:24:12;99706.06;;;29.45;54.89
34177;BME280;20450;49.074;9.158;2022-07-23T10:26:58;99707.31;;;29.84;53.53
34177;BME280;20450;49.074;9.158;2022-07-23T10:29:44;99712.59;;;30.41;53.43
34177;BME280;20450;49.074;9.158;2022-07-23T10:32:24;99707.03;;;30.99;51.62
34177;BME280;20450;49.074;9.158;2022-07-23T10:35:09;99706.66;;;31.51;50.41
34177;BME280;20450;49.074;9.158;2022-07-23T10:37:51;99706.38;;;31.20;48.40
34177;BME280;20450;49.074;9.158;2022-07-23T10:40:30;99698.28;;;28.85;53.62
34177;BME280;20450;49.074;9.158;2022-07-23T10:42:59;99699.63;;;29.35;54.61
34177;BME280;20450;49.074;9.158;2022-07-23T10:45:32;99706.16;;;30.54;51.69
34177;BME280;20450;49.074;9.158;2022-07-23T10:48:13;99698.53;;;31.35;49.15
34177;BME280;20450;49.074;9.158;2022-07-23T10:50:42;99680.84;;;31.39;46.29
34177;BME280;20450;49.074;9.158;2022-07-23T10:53:14;99693.97;;;31.85;46.70
34177;BME280;20450;49.074;9.158;2022-07-23T10:55:49;99697.72;;;31.51;47.01
34177;BME280;20450;49.074;9.158;2022-07-23T10:58:28;99692.91;;;31.86;46.42
34177;BME280;20450;49.074;9.158;2022-07-23T11:01:34;99700.81;;;32.52;44.69
34177;BME280;20450;49.074;9.158;2022-07-23T11:04:03;99697.66;;;31.29;46.27
34177;BME280;20450;49.074;9.158;2022-07-23T11:07:08;99697.94;;;31.99;45.84
34177;BME280;20450;49.074;9.158;2022-07-23T11:09:41;99687.31;;;32.30;46.02
34177;BME280;20450;49.074;9.158;2022-07-23T11:12:32;99695.94;;;32.97;46.28
34177;BME280;20450;49.074;9.158;2022-07-23T11:15:02;99693.78;;;33.57;45.01
34177;BME280;20450;49.074;9.158;2022-07-23T11:17:32;99690.59;;;34.01;43.50
34177;BME280;20450;49.074;9.158;2022-07-23T11:20:16;99692.44;;;33.96;43.27
34177;BME280;20450;49.074;9.158;2022-07-23T11:22:49;99689.00;;;34.10;43.33
34177;BME280;20450;49.074;9.158;2022-07-23T11:25:35;99692.19;;;34.49;42.45
34177;BME280;20450;49.074;9.158;2022-07-23T11:28:11;99695.59;;;35.01;41.45
34177;BME280;20450;49.074;9.158;2022-07-23T11:30:42;99686.91;;;34.89;39.77
34177;BME280;20450;49.074;9.158;2022-07-23T11:33:20;99692.53;;;34.72;38.86
34177;BME280;20450;49.074;9.158;2022-07-23T11:35:51;99679.00;;;34.72;38.37
34177;BME280;20450;49.074;9.158;2022-07-23T11:38:30;99678.38;;;33.94;39.88
34177;BME280;20450;49.074;9.158;2022-07-23T11:40:58;99682.63;;;34.26;39.06
34177;BME280;20450;49.074;9.158;2022-07-23T11:43:26;99674.53;;;34.31;39.36
34177;BME280;20450;49.074;9.158;2022-07-23T11:45:57;99671.69;;;34.73;38.88
34177;BME280;20450;49.074;9.158;2022-07-23T11:48:27;99670.50;;;34.39;40.31
34177;BME280;20450;49.074;9.158;2022-07-23T11:50:57;99667.56;;;34.50;39.61
34177;BME280;20450;49.074;9.158;2022-07-23T11:53:26;99666.34;;;34.98;39.78
34177;BME280;20450;49.074;9.158;2022-07-23T11:56:03;99667.44;;;35.07;39.35
34177;BME280;20450;49.074;9.158;2022-07-23T11:58:32;99663.09;;;35.21;38.93
34177;BME280;20450;49.074;9.158;2022-07-23T12:00:59;99664.44;;;35.13;38.89
34177;BME280;20450;49.074;9.158;2022-07-23T12:03:27;99666.34;;;35.13;38.57
34177;BME280;20450;49.074;9.158;2022-07-23T12:05:57;99664.75;;;35.32;39.30
34177;BME280;20450;49.074;9.158;2022-07-23T12:08:25;99665.53;;;35.02;38.34
34177;BME280;20450;49.074;9.158;2022-07-23T12:10:52;99665.22;;;34.12;38.28
34177;BME280;20450;49.074;9.158;2022-07-23T12:13:20;99666.84;;;34.13;39.21
34177;BME280;20450;49.074;9.158;2022-07-23T12:15:54;99656.16;;;33.87;40.00
34177;BME280;20450;49.074;9.158;2022-07-23T12:18:25;99649.41;;;33.53;39.25
34177;BME280;20450;49.074;9.158;2022-07-23T12:20:54;99648.63;;;33.21;39.38
34177;BME280;20450;49.074;9.158;2022-07-23T12:23:24;99644.88;;;32.42;40.47
34177;BME280;20450;49.074;9.158;2022-07-23T12:25:52;99639.75;;;31.81;40.61
34177;BME280;20450;49.074;9.158;2022-07-23T12:28:26;99643.75;;;31.79;40.40
34177;BME280;20450;49.074;9.158;2022-07-23T12:30:57;99647.09;;;31.69;41.52
34177;BME280;20450;49.074;9.158;2022-07-23T12:33:28;99649.06;;;31.41;40.01
34177;BME280;20450;49.074;9.158;2022-07-23T12:35:58;99643.50;;;31.64;40.92
34177;BME280;20450;49.074;9.158;2022-07-23T12:38:37;99650.56;;;31.32;42.40
34177;BME280;20450;49.074;9.158;2022-07-23T12:41:06;99645.25;;;31.37;43.65
34177;BME280;20450;49.074;9.158;2022-07-23T12:43:36;99645.00;;;31.38;43.35
34177;BME280;20450;49.074;9.158;2022-07-23T12:46:08;99654.16;;;31.54;43.52
34177;BME280;20450;49.074;9.158;2022-07-23T12:48:38;99643.81;;;31.67;43.50
34177;BME280;20450;49.074;9.158;2022-07-23T12:51:08;99646.09;;;31.59;42.52
34177;BME280;20450;49.074;9.158;2022-07-23T12:53:48;99644.41;;;31.53;43.10
34177;BME280;20450;49.074;9.158;2022-07-23T12:56:18;99637.47;;;31.57;43.05
34177;BME280;20450;49.074;9.158;2022-07-23T12:58:49;99653.31;;;31.53;43.88
34177;BME280;20450;49.074;9.158;2022-07-23T13:01:30;99649.25;;;31.51;44.95
34177;BME280;20450;49.074;9.158;2022-07-23T13:04:02;99652.41;;;31.64;44.19
34177;BME280;20450;49.074;9.158;2022-07-23T13:06:40;99650.69;;;31.58;44.00
34177;BME280;20450;49.074;9.158;2022-07-23T13:09:10;99652.41;;;31.64;43.81
34177;BME280;20450;49.074;9.158;2022-07-23T13:11:40;99649.06;;;31.57;42.11
34177;BME280;20450;49.074;9.158;2022-07-23T13:14:07;99648.28;;;31.40;40.94
34177;BME280;20450;49.074;9.158;2022-07-23T13:16:36;99647.25;;;31.63;41.13
34177;BME280;20450;49.074;9.158;2022-07-23T13:19:04;99649.06;;;31.74;39.83
34177;BME280;20450;49.074;9.158;2022-07-23T13:21:37;99648.00;;;31.75;39.87
34177;BME280;20450;49.074;9.158;2022-07-23T13:24:06;99650.84;;;31.68;40.47
34177;BME280;20450;49.074;9.158;2022-07-23T13:26:35;99645.22;;;31.53;40.30